Time;durP1;ratioP1;P1;durP2;ratioP2;P2;SDS_P1;SDS_P2;PMS_P1;PMS_P2;Temp;Humidity;BMP_temperature;BMP_pressure;BME280_temperature;BME280_humidity;BME280_pressure;Samples;Min_cycle;Max_cycle;Signal;HPM_P1;HPM_P2
2023/06/09 00:03:45;;;;;;;;;;;;;;;14.81;100.00;97299.03;18569434;32;19989;-56
2023/06/09 00:13:48;;;;;;;;;;;;;;;14.54;100.00;97295.25;18569159;32;19965;-57
2023/06/09 00:23:52;;;;;;;;;;;;;;;14.34;100.00;97299.22;18568639;32;19979;-55
2023/06/09 00:33:54;;;;;;;;;;;;;;;14.13;100.00;97291.47;18567338;31;19968;-56
2023/06/09 00:43:58;;;;;;;;;;;;;;;13.96;100.00;97293.97;18567282;32;20011;-56
2023/06/09 00:54:02;;;;;;;;;;;;;;;13.78;100.00;97303.81;18551939;31;19961;-56
2023/06/09 01:04:05;;;;;;;;;;;;;;;13.65;100.00;97297.25;18566058;32;19960;-57
2023/06/09 01:14:13;;;;;;;;;;;;;;;13.48;100.00;97281.53;18565454;32;19945;-56
2023/06/09 01:24:26;;;;;;;;;;;;;;;13.35;100.00;97288.50;18564872;32;19944;-57
2023/06/09 01:34:29;;;;;;;;;;;;;;;13.22;100.00;97287.34;18563865;31;19952;-56
2023/06/09 01:44:31;;;;;;;;;;;;;;;13.09;100.00;97278.06;18563313;32;19985;-56
2023/06/09 01:54:40;;;;;;;;;;;;;;;12.95;100.00;97279.91;18562537;32;19957;-54
2023/06/09 02:04:45;;;;;;;;;;;;;;;12.81;100.00;97269.00;18562343;32;19987;-55
2023/06/09 02:14:52;;;;;;;;;;;;;;;12.71;100.00;97259.09;18562276;32;19949;-56
2023/06/09 02:24:55;;;;;;;;;;;;;;;12.59;100.00;97259.53;18561514;32;19988;-57
2023/06/09 02:34:57;;;;;;;;;;;;;;;12.48;100.00;97271.63;18561015;32;20000;-56
2023/06/09 02:45:01;;;;;;;;;;;;;;;12.36;100.00;97262.03;18560684;31;19960;-55
2023/06/09 02:55:05;;;;;;;;;;;;;;;12.22;100.00;97265.75;18560483;32;19964;-54
2023/06/09 03:05:09;;;;;;;;;;;;;;;12.14;100.00;97259.03;18557901;32;20322;-55
2023/06/09 03:15:11;;;;;;;;;;;;;;;12.06;100.00;97256.97;18572729;32;19945;-55
2023/06/09 03:25:15;;;;;;;;;;;;;;;11.95;100.00;97254.41;18572152;32;19979;-56
2023/06/09 03:35:18;;;;;;;;;;;;;;;11.86;100.00;97266.94;18556857;31;20332;-56
2023/06/09 03:45:21;;;;;;;;;;;;;;;11.79;100.00;97261.88;18570505;32;19956;-56
2023/06/09 03:55:24;;;;;;;;;;;;;;;11.73;100.00;97268.44;18570430;32;20003;-57
2023/06/09 04:05:28;;;;;;;;;;;;;;;11.74;100.00;97270.03;18569592;32;20052;-56
2023/06/09 04:15:31;;;;;;;;;;;;;;;11.79;100.00;97275.41;18568424;32;20340;-57
2023/06/09 04:25:34;;;;;;;;;;;;;;;11.82;100.00;97280.25;18568436;32;19964;-57
2023/06/09 04:35:37;;;;;;;;;;;;;;;11.98;100.00;97274.72;18567758;32;20337;-57
2023/06/09 04:45:41;;;;;;;;;;;;;;;12.18;100.00;97279.87;18567105;32;20314;-57
2023/06/09 04:55:43;;;;;;;;;;;;;;;12.45;100.00;97293.91;18566784;32;19960;-57
2023/06/09 05:05:46;;;;;;;;;;;;;;;12.71;100.00;97288.94;18565901;32;19989;-57
2023/06/09 05:15:49;;;;;;;;;;;;;;;13.03;100.00;97282.78;18565885;32;19964;-57
2023/06/09 05:25:52;;;;;;;;;;;;;;;13.42;100.00;97293.59;18563843;31;19967;-56
2023/06/09 05:35:55;;;;;;;;;;;;;;;13.80;100.00;97294.25;18563736;31;19985;-56
2023/06/09 05:45:58;;;;;;;;;;;;;;;14.23;100.00;97298.59;18563538;32;19983;-57
2023/06/09 05:56:02;;;;;;;;;;;;;;;14.67;100.00;97301.81;18563415;32;20008;-57
2023/06/09 06:06:05;;;;;;;;;;;;;;;15.12;100.00;97317.41;18548336;32;20289;-57
2023/06/09 06:16:07;;;;;;;;;;;;;;;15.61;100.00;97326.56;18561982;32;20357;-57
2023/06/09 06:26:11;;;;;;;;;;;;;;;16.24;100.00;97319.19;18546864;32;20253;-56
2023/06/09 06:36:14;;;;;;;;;;;;;;;16.90;100.00;97326.59;18560453;31;19960;-56
2023/06/09 06:46:18;;;;;;;;;;;;;;;17.58;100.00;97330.75;18560722;32;20325;-57
2023/06/09 06:56:25;;;;;;;;;;;;;;;18.10;100.00;97329.81;18560570;32;19952;-57
2023/06/09 07:06:29;;;;;;;;;;;;;;;18.71;100.00;97340.47;18560165;32;19965;-57
2023/06/09 07:16:33;;;;;;;;;;;;;;;19.24;100.00;97351.09;18545754;32;19993;-57
2023/06/09 07:26:37;;;;;;;;;;;;;;;19.74;100.00;97346.63;18559962;32;20032;-58
2023/06/09 07:36:40;;;;;;;;;;;;;;;20.25;100.00;97360.16;18544618;31;19995;-57
2023/06/09 07:46:43;;;;;;;;;;;;;;;20.71;97.74;97360.09;18548884;32;19952;-57
2023/06/09 07:56:49;;;;;;;;;;;;;;;21.25;94.47;97361.72;18556431;32;19978;-56
2023/06/09 08:06:52;;;;;;;;;;;;;;;21.72;89.52;97347.34;18569688;32;19971;-57
2023/06/09 08:16:55;;;;;;;;;;;;;;;22.16;87.86;97332.75;18569391;32;19956;-57
2023/06/09 08:27:02;;;;;;;;;;;;;;;22.58;82.37;97331.44;18568885;32;19960;-57
2023/06/09 08:37:05;;;;;;;;;;;;;;;22.99;80.92;97323.69;18567737;31;19961;-56
2023/06/09 08:47:08;;;;;;;;;;;;;;;23.39;74.13;97319.03;18567517;32;19973;-56
2023/06/09 08:57:11;;;;;;;;;;;;;;;23.71;78.29;97308.63;18566386;32;19952;-56
2023/06/09 09:07:14;;;;;;;;;;;;;;;24.04;73.72;97312.78;18565762;32;19952;-56
2023/06/09 09:17:17;;;;;;;;;;;;;;;24.40;74.97;97310.59;18565858;32;19952;-57
2023/06/09 09:27:23;;;;;;;;;;;;;;;24.82;69.21;97308.91;18550480;32;20000;-57
2023/06/09 09:37:27;;;;;;;;;;;;;;;25.04;65.42;97291.41;18564063;31;19945;-58
2023/06/09 09:47:31;;;;;;;;;;;;;;;25.37;63.23;97289.09;18549480;32;19999;-57
2023/06/09 09:57:35;;;;;;;;;;;;;;;25.60;55.21;97272.34;18562733;31;19956;-57
2023/06/09 10:07:42;;;;;;;;;;;;;;;25.95;55.27;97275.84;18547477;32;20037;-57
2023/06/09 10:17:46;;;;;;;;;;;;;;;26.33;52.65;97276.56;18561939;32;20361;-57
2023/06/09 10:27:50;;;;;;;;;;;;;;;26.58;47.63;97271.19;18561535;32;20007;-58
2023/06/09 10:37:56;;;;;;;;;;;;;;;26.97;51.23;97256.78;18546999;31;19961;-57
2023/06/09 10:47:59;;;;;;;;;;;;;;;27.30;45.08;97257.72;18560762;32;19964;-57
2023/06/09 10:58:23;;;;;;;;;;;;;;;27.61;46.84;97247.09;18546356;32;20345;-56
2023/06/09 11:08:47;;;;;;;;;;;;;;;27.90;45.32;97241.56;18545925;32;19968;-57
2023/06/09 11:19:10;;;;;;;;;;;;;;;28.38;41.17;97232.88;18562237;32;20020;-56
2023/06/09 11:29:16;;;;;;;;;;;;;;;28.97;43.16;97245.47;18557917;32;19973;-55
2023/06/09 11:39:21;;;;;;;;;;;;;;;29.33;41.17;97225.84;18571252;32;20063;-56
2023/06/09 11:49:25;;;;;;;;;;;;;;;29.68;36.84;97215.69;18571180;31;19965;-55
2023/06/09 11:59:28;;;;;;;;;;;;;;;29.87;36.67;97205.22;18570376;32;20069;-56
2023/06/09 12:09:54;;;;;;;;;;;;;;;30.09;35.54;97197.47;18570258;32;20277;-56
2023/06/09 12:19:57;;;;;;;;;;;;;;;30.68;38.03;97195.72;18569211;32;19979;-54
2023/06/09 12:30:01;;;;;;;;;;;;;;;31.04;35.51;97193.31;18568247;32;19965;-56
2023/06/09 12:40:07;;;;;;;;;;;;;;;31.72;35.92;97188.75;18567863;32;19984;-54
2023/06/09 12:50:17;;;;;;;;;;;;;;;31.87;34.29;97171.78;18567102;32;19995;-52
2023/06/09 13:00:20;;;;;;;;;;;;;;;32.08;34.40;97171.41;18566817;32;19948;-54
2023/06/09 13:10:25;;;;;;;;;;;;;;;32.86;34.11;97164.00;18565982;32;19956;-53
2023/06/09 13:20:27;;;;;;;;;;;;;;;33.17;33.04;97158.13;18565275;32;19956;-53
2023/06/09 13:30:30;;;;;;;;;;;;;;;33.57;30.91;97142.00;18564585;32;19960;-54
2023/06/09 13:40:44;;;;;;;;;;;;;;;34.04;27.83;97128.88;18563458;32;19945;-53
2023/06/09 13:50:49;;;;;;;;;;;;;;;34.33;31.98;97128.94;18563930;32;19983;-54
2023/06/09 14:00:52;;;;;;;;;;;;;;;34.76;27.80;97116.47;18548618;32;19991;-52
2023/06/09 14:10:55;;;;;;;;;;;;;;;35.15;28.61;97101.69;18562345;32;19956;-54
2023/06/09 14:20:59;;;;;;;;;;;;;;;35.71;27.33;97089.06;18548071;32;19944;-54
2023/06/09 14:31:05;;;;;;;;;;;;;;;35.87;26.38;97085.34;18561509;31;19983;-53
2023/06/09 14:41:15;;;;;;;;;;;;;;;35.95;25.59;97078.25;18560988;32;20279;-54
2023/06/09 14:51:19;;;;;;;;;;;;;;;35.88;27.10;97076.47;18560999;32;19994;-55
2023/06/09 15:01:23;;;;;;;;;;;;;;;35.59;25.69;97065.38;18558934;32;20384;-54
2023/06/09 15:11:27;;;;;;;;;;;;;;;33.42;26.92;97039.91;18559010;32;19952;-55
2023/06/09 15:21:33;;;;;;;;;;;;;;;32.73;28.45;97049.88;18558380;32;19989;-54
2023/06/09 15:31:36;;;;;;;;;;;;;;;31.75;29.60;97039.81;18558180;32;20355;-53
2023/06/09 15:41:40;;;;;;;;;;;;;;;30.74;28.31;97026.63;18571088;32;19968;-52
2023/06/09 15:51:43;;;;;;;;;;;;;;;30.12;31.87;97003.50;18570860;32;19952;-53
2023/06/09 16:01:46;;;;;;;;;;;;;;;29.97;30.73;97003.69;18556079;32;19952;-53
2023/06/09 16:11:49;;;;;;;;;;;;;;;29.75;33.93;97009.44;18554492;32;19968;-51
2023/06/09 16:21:51;;;;;;;;;;;;;;;29.91;32.98;97002.53;18554778;31;19953;-51
2023/06/09 16:31:54;;;;;;;;;;;;;;;29.80;34.91;96999.84;18568783;32;19989;-52
2023/06/09 16:41:58;;;;;;;;;;;;;;;29.85;35.05;96984.72;18567495;32;19957;-53
2023/06/09 16:52:02;;;;;;;;;;;;;;;29.95;39.43;96996.94;18567207;32;19989;-52
2023/06/09 17:02:05;;;;;;;;;;;;;;;29.44;38.47;97003.00;18567374;32;19983;-50
2023/06/09 17:12:10;;;;;;;;;;;;;;;29.04;37.00;97011.66;18566057;32;19957;-51
2023/06/09 17:22:13;;;;;;;;;;;;;;;28.36;37.15;97012.03;18537492;32;20308;-52
2023/06/09 17:32:22;;;;;;;;;;;;;;;28.22;35.83;97018.47;18550426;32;19956;-49
2023/06/09 17:42:25;;;;;;;;;;;;;;;27.95;37.25;97027.25;18549941;32;19948;-52
2023/06/09 17:52:29;;;;;;;;;;;;;;;27.46;38.63;97034.47;18563489;32;19973;-50
2023/06/09 18:02:33;;;;;;;;;;;;;;;27.16;38.66;97038.41;18562949;32;19953;-53
2023/06/09 18:12:36;;;;;;;;;;;;;;;27.63;39.91;97055.91;18562202;32;19964;-51
2023/06/09 18:22:40;;;;;;;;;;;;;;;27.67;38.64;97059.47;18561834;32;20308;-49
2023/06/09 18:32:46;;;;;;;;;;;;;;;26.71;42.52;97053.44;18561123;32;19979;-48
2023/06/09 18:42:49;;;;;;;;;;;;;;;25.80;46.65;97053.38;18560836;32;20007;-53
2023/06/09 18:52:53;;;;;;;;;;;;;;;25.23;46.89;97060.06;18560781;32;19944;-53
2023/06/09 19:02:56;;;;;;;;;;;;;;;24.70;51.40;97059.13;18560369;31;20324;-53
2023/06/09 19:13:00;;;;;;;;;;;;;;;24.02;58.54;97070.16;18560249;32;20290;-53
2023/06/09 19:23:07;;;;;;;;;;;;;;;23.40;67.43;97083.38;18560097;32;20368;-53
2023/06/09 19:33:11;;;;;;;;;;;;;;;22.78;71.07;97084.25;18559940;32;20340;-54
2023/06/09 19:43:15;;;;;;;;;;;;;;;22.22;76.43;97094.50;18563976;32;19956;-54
2023/06/09 19:53:19;;;;;;;;;;;;;;;21.77;81.03;97106.88;18570833;32;19983;-49
2023/06/09 20:03:23;;;;;;;;;;;;;;;21.42;88.05;97104.84;18570087;32;19952;-53
2023/06/09 20:13:28;;;;;;;;;;;;;;;21.11;91.22;97125.69;18569663;32;19961;-53
2023/06/09 20:23:40;;;;;;;;;;;;;;;20.73;96.07;97133.31;18569524;32;19965;-54
2023/06/09 20:33:45;;;;;;;;;;;;;;;20.44;98.41;97150.91;18568491;32;19967;-53
2023/06/09 20:43:52;;;;;;;;;;;;;;;20.13;100.00;97166.03;18567802;32;20000;-54
2023/06/09 20:53:55;;;;;;;;;;;;;;;19.90;100.00;97179.47;18552714;31;19990;-54
2023/06/09 21:03:59;;;;;;;;;;;;;;;19.64;100.00;97200.56;18552923;32;20302;-53
2023/06/09 21:14:04;;;;;;;;;;;;;;;19.41;100.00;97204.88;18566115;32;19961;-53
2023/06/09 21:24:07;;;;;;;;;;;;;;;19.38;100.00;97236.50;18565336;32;19971;-54
2023/06/09 21:34:10;;;;;;;;;;;;;;;19.51;100.00;97239.28;18550052;32;20254;-53
2023/06/09 21:44:13;;;;;;;;;;;;;;;19.53;100.00;97242.47;18564175;32;20360;-54
2023/06/09 21:54:16;;;;;;;;;;;;;;;19.48;100.00;97248.97;18549097;32;19993;-53
2023/06/09 22:04:18;;;;;;;;;;;;;;;19.35;100.00;97252.81;18562471;32;19961;-55
2023/06/09 22:14:21;;;;;;;;;;;;;;;19.17;100.00;97255.75;18562963;32;19953;-53
2023/06/09 22:24:23;;;;;;;;;;;;;;;19.03;100.00;97258.75;18562384;32;19956;-51
2023/06/09 22:34:26;;;;;;;;;;;;;;;18.98;100.00;97263.63;18561416;31;19993;-54
2023/06/09 22:44:29;;;;;;;;;;;;;;;18.88;100.00;97270.31;18561139;32;19976;-53
2023/06/09 22:54:32;;;;;;;;;;;;;;;18.70;100.00;97267.66;18546951;32;19948;-54
2023/06/09 23:04:34;;;;;;;;;;;;;;;18.54;100.00;97275.69;18560490;32;19973;-54
2023/06/09 23:14:37;;;;;;;;;;;;;;;18.46;100.00;97268.34;18562265;32;20257;-55
2023/06/09 23:24:41;;;;;;;;;;;;;;;18.32;100.00;97273.22;18572596;32;20380;-54
2023/06/09 23:34:43;;;;;;;;;;;;;;;18.17;100.00;97263.66;18557500;31;19975;-56
2023/06/09 23:44:45;;;;;;;;;;;;;;;17.99;100.00;97261.00;18572351;32;19961;-56
2023/06/09 23:54:48;;;;;;;;;;;;;;;17.85;100.00;97272.13;18570894;32;19961;-55
